Time;durP1;ratioP1;P1;durP2;ratioP2;P2;SDS_P1;SDS_P2;PMS_P1;PMS_P2;Temp;Humidity;BMP_temperature;BMP_pressure;BME280_temperature;BME280_humidity;BME280_pressure;Samples;Min_cycle;Max_cycle;Signal;HPM_P1;HPM_P2
2024/01/27 00:00:40;;;;;;;10.50;3.25;;;4.40;99.90;;;;;;5134431;28;20024;-67
2024/01/27 00:03:05;;;;;;;8.50;2.90;;;4.40;99.90;;;;;;5134510;28;20027;-67
2024/01/27 00:05:31;;;;;;;13.40;3.35;;;4.40;99.90;;;;;;5133324;28;20036;-67
2024/01/27 00:07:57;;;;;;;7.90;3.80;;;4.40;99.90;;;;;;5134230;28;20020;-67
2024/01/27 00:10:22;;;;;;;12.82;3.45;;;4.40;99.90;;;;;;5134295;28;20027;-67
2024/01/27 00:12:48;;;;;;;11.25;3.22;;;4.40;99.90;;;;;;5115420;28;20040;-67
2024/01/27 00:15:13;;;;;;;20.58;4.57;;;4.40;99.90;;;;;;5134188;28;20032;-67
2024/01/27 00:17:39;;;;;;;8.38;2.83;;;4.30;99.90;;;;;;5134080;28;20077;-67
2024/01/27 00:20:06;;;;;;;18.88;3.83;;;4.30;99.90;;;;;;5133759;28;20027;-67
2024/01/27 00:22:31;;;;;;;12.50;3.40;;;4.30;99.90;;;;;;5133999;28;20011;-67
2024/01/27 00:24:57;;;;;;;12.82;3.22;;;4.30;99.90;;;;;;5133899;28;20043;-67
2024/01/27 00:27:22;;;;;;;11.98;3.35;;;4.30;99.90;;;;;;5132697;28;20024;-68
2024/01/27 00:29:48;;;;;;;18.65;4.57;;;4.30;99.90;;;;;;5133631;28;20055;-67
2024/01/27 00:32:14;;;;;;;13.70;3.88;;;4.30;99.90;;;;;;5133853;28;20035;-67
2024/01/27 00:34:39;;;;;;;10.23;3.92;;;4.30;99.90;;;;;;5133575;28;20028;-67
2024/01/27 00:37:05;;;;;;;12.50;3.55;;;4.20;99.90;;;;;;5132780;28;20020;-67
2024/01/27 00:39:32;;;;;;;9.55;3.13;;;4.20;99.90;;;;;;5133720;28;20088;-67
2024/01/27 00:41:58;;;;;;;10.13;3.85;;;4.20;99.90;;;;;;5133676;28;20094;-67
2024/01/27 00:44:24;;;;;;;10.38;4.20;;;4.20;99.90;;;;;;5133640;28;20024;-67
2024/01/27 00:46:50;;;;;;;14.20;3.38;;;4.20;99.90;;;;;;5133612;28;20039;-67
2024/01/27 00:49:15;;;;;;;11.23;3.92;;;4.20;99.90;;;;;;5132260;28;20036;-67
2024/01/27 00:51:41;;;;;;;14.30;3.97;;;4.20;99.90;;;;;;5132457;28;20045;-67
2024/01/27 00:54:06;;;;;;;10.80;3.45;;;4.20;99.90;;;;;;5133537;28;20019;-66
2024/01/27 00:56:32;;;;;;;14.88;3.78;;;4.20;99.90;;;;;;5133396;28;20035;-67
2024/01/27 00:58:57;;;;;;;8.93;3.55;;;4.20;99.90;;;;;;5132295;28;20032;-67
2024/01/27 01:01:23;;;;;;;8.63;3.22;;;4.20;99.90;;;;;;5133319;28;20027;-66
2024/01/27 01:03:49;;;;;;;9.50;3.63;;;4.20;99.90;;;;;;5133159;28;20031;-68
2024/01/27 01:06:14;;;;;;;16.23;4.07;;;4.10;99.90;;;;;;5132278;28;20030;-66
2024/01/27 01:08:40;;;;;;;13.45;3.40;;;4.10;99.90;;;;;;5133117;28;20035;-66
2024/01/27 01:11:06;;;;;;;20.75;4.55;;;4.10;99.90;;;;;;5132310;28;20024;-66
2024/01/27 01:13:31;;;;;;;14.20;4.45;;;4.10;99.90;;;;;;5132207;28;20036;-66
2024/01/27 01:15:57;;;;;;;9.75;3.47;;;4.10;99.90;;;;;;5133096;28;20080;-67
2024/01/27 01:18:22;;;;;;;9.40;4.03;;;4.10;99.90;;;;;;5132777;28;20084;-67
2024/01/27 01:20:48;;;;;;;12.30;3.78;;;4.00;99.90;;;;;;5132965;28;20031;-66
2024/01/27 01:23:13;;;;;;;10.40;3.80;;;4.00;99.90;;;;;;5131778;28;20554;-67
2024/01/27 01:25:39;;;;;;;19.63;4.75;;;4.00;99.90;;;;;;5132915;28;20035;-67
2024/01/27 01:28:05;;;;;;;12.93;4.50;;;3.90;99.90;;;;;;5132610;28;20048;-66
2024/01/27 01:30:30;;;;;;;11.25;4.65;;;3.90;99.90;;;;;;5132922;28;20120;-66
2024/01/27 01:32:56;;;;;;;11.40;3.72;;;3.90;99.90;;;;;;5132914;28;20034;-66
2024/01/27 01:35:21;;;;;;;15.15;4.55;;;3.90;99.90;;;;;;5132749;28;20024;-67
2024/01/27 01:37:48;;;;;;;16.65;4.20;;;3.90;99.90;;;;;;5131907;28;20071;-66
2024/01/27 01:40:15;;;;;;;14.60;4.28;;;3.90;99.90;;;;;;5131927;28;20062;-67
2024/01/27 01:42:41;;;;;;;10.90;4.10;;;3.90;99.90;;;;;;5132822;28;20016;-66
2024/01/27 01:45:09;;;;;;;9.27;3.85;;;3.90;99.90;;;;;;5131840;28;20019;-67
2024/01/27 01:47:34;;;;;;;9.40;4.47;;;3.80;99.90;;;;;;5132717;28;20024;-66
2024/01/27 01:50:01;;;;;;;18.52;4.70;;;3.80;99.90;;;;;;5132447;28;20034;-66
2024/01/27 01:52:26;;;;;;;12.98;4.20;;;3.80;99.90;;;;;;5132720;28;20083;-66
2024/01/27 01:54:52;;;;;;;13.05;4.25;;;3.80;99.90;;;;;;5131714;28;20042;-67
2024/01/27 01:57:18;;;;;;;12.63;4.72;;;3.80;99.90;;;;;;5131509;28;20031;-67
2024/01/27 01:59:43;;;;;;;10.52;4.65;;;3.80;99.90;;;;;;5132659;28;20028;-67
2024/01/27 02:02:09;;;;;;;12.68;4.05;;;3.80;99.90;;;;;;5132644;28;20027;-66
2024/01/27 02:04:48;;;;;;;12.35;4.32;;;3.80;99.90;;;;;;5132437;28;20099;-66
2024/01/27 02:07:14;;;;;;;11.98;4.60;;;3.80;99.90;;;;;;5132600;28;20054;-66
2024/01/27 02:09:40;;;;;;;11.90;4.43;;;3.80;99.90;;;;;;5132534;28;20028;-66
2024/01/27 02:12:06;;;;;;;16.05;5.00;;;3.80;99.90;;;;;;5131494;28;20093;-66
2024/01/27 02:14:32;;;;;;;13.63;4.30;;;3.80;99.90;;;;;;5131386;28;20046;-67
2024/01/27 02:16:58;;;;;;;17.90;4.75;;;3.70;99.90;;;;;;5131416;28;20024;-66
2024/01/27 02:19:24;;;;;;;14.93;4.90;;;3.80;99.90;;;;;;5131233;28;20020;-66
2024/01/27 02:21:50;;;;;;;12.18;4.32;;;3.80;99.90;;;;;;5114531;28;20088;-67
2024/01/27 02:24:15;;;;;;;12.50;4.53;;;3.80;99.90;;;;;;5132331;28;20020;-66
2024/01/27 02:26:41;;;;;;;12.57;5.22;;;3.80;99.90;;;;;;5132310;28;20088;-66
2024/01/27 02:29:07;;;;;;;17.00;6.13;;;3.80;99.90;;;;;;5114027;28;20071;-66
2024/01/27 02:31:32;;;;;;;14.10;4.88;;;3.70;99.90;;;;;;5132382;28;20043;-66
2024/01/27 02:33:58;;;;;;;12.20;4.88;;;3.70;99.90;;;;;;5131424;28;20516;-66
2024/01/27 02:36:23;;;;;;;13.65;4.90;;;3.70;99.90;;;;;;5134041;28;20024;-66
2024/01/27 02:38:49;;;;;;;15.88;5.00;;;3.70;99.90;;;;;;5136085;28;20038;-66
2024/01/27 02:41:15;;;;;;;19.80;5.22;;;3.70;99.90;;;;;;5135958;28;20034;-66
2024/01/27 02:43:40;;;;;;;11.30;4.93;;;3.70;99.90;;;;;;5135950;28;20024;-67
2024/01/27 02:46:11;;;;;;;13.82;5.53;;;3.70;99.90;;;;;;5135798;28;20024;-67
2024/01/27 02:48:39;;;;;;;18.35;5.25;;;3.70;99.90;;;;;;5135617;28;20028;-67
2024/01/27 02:51:05;;;;;;;16.30;5.72;;;3.60;99.90;;;;;;5135781;28;20022;-66
2024/01/27 02:53:30;;;;;;;23.25;5.53;;;3.50;99.90;;;;;;5135753;28;20031;-66
2024/01/27 02:55:56;;;;;;;14.45;5.15;;;3.60;99.90;;;;;;5135708;28;20028;-67
2024/01/27 02:58:22;;;;;;;15.55;5.35;;;3.50;99.90;;;;;;5135550;28;20035;-67
2024/01/27 03:00:47;;;;;;;13.48;4.88;;;3.60;99.90;;;;;;5117493;28;20028;-67
2024/01/27 03:03:14;;;;;;;12.20;4.72;;;3.60;99.90;;;;;;5135317;28;20401;-66
2024/01/27 03:05:39;;;;;;;16.50;6.05;;;3.60;99.90;;;;;;5135552;28;20092;-66
2024/01/27 03:08:05;;;;;;;16.13;5.80;;;3.60;99.90;;;;;;5135405;28;20032;-66
2024/01/27 03:10:31;;;;;;;17.25;6.18;;;3.60;99.90;;;;;;5135453;28;20028;-66
2024/01/27 03:12:57;;;;;;;16.88;5.47;;;3.60;99.90;;;;;;5135283;28;20024;-66
2024/01/27 03:15:22;;;;;;;11.23;5.78;;;3.60;99.90;;;;;;5135308;28;20028;-66
2024/01/27 03:17:48;;;;;;;12.45;4.88;;;3.60;99.90;;;;;;5134184;28;20022;-67
2024/01/27 03:20:14;;;;;;;11.60;5.13;;;3.50;99.90;;;;;;5135119;28;20024;-66
2024/01/27 03:22:42;;;;;;;10.48;5.15;;;3.50;99.90;;;;;;5134097;28;20020;-66
2024/01/27 03:25:10;;;;;;;21.00;6.53;;;3.50;99.90;;;;;;5135023;28;20042;-66
2024/01/27 03:27:35;;;;;;;16.83;5.40;;;3.50;99.90;;;;;;5133873;28;20023;-66
2024/01/27 03:30:02;;;;;;;13.80;6.15;;;3.50;99.90;;;;;;5134723;28;20079;-66
2024/01/27 03:32:28;;;;;;;14.75;5.93;;;3.50;99.90;;;;;;5134986;28;20011;-66
2024/01/27 03:34:53;;;;;;;17.83;5.78;;;3.50;99.90;;;;;;5134918;28;20539;-66
2024/01/27 03:37:22;;;;;;;18.75;6.55;;;3.40;99.90;;;;;;5133841;28;20031;-67
2024/01/27 03:39:47;;;;;;;17.80;5.72;;;3.40;99.90;;;;;;5133950;28;20087;-66
2024/01/27 03:42:13;;;;;;;12.63;6.68;;;3.40;99.90;;;;;;5134682;28;20096;-66
2024/01/27 03:44:39;;;;;;;18.05;6.25;;;3.40;99.90;;;;;;5116609;28;20027;-66
2024/01/27 03:47:04;;;;;;;14.43;6.93;;;3.40;99.90;;;;;;5133693;28;20497;-66
2024/01/27 03:49:30;;;;;;;24.92;6.15;;;3.30;99.90;;;;;;5134399;28;20278;-67
2024/01/27 03:51:55;;;;;;;9.63;5.63;;;3.30;99.90;;;;;;5134677;28;20034;-66
2024/01/27 03:54:21;;;;;;;11.50;5.55;;;3.30;99.90;;;;;;5134628;28;20024;-66
2024/01/27 03:56:47;;;;;;;17.02;6.57;;;3.30;99.90;;;;;;5134441;28;20023;-66
2024/01/27 03:59:12;;;;;;;17.50;6.78;;;3.30;99.90;;;;;;5134422;28;20031;-66
2024/01/27 04:01:38;;;;;;;15.23;5.68;;;3.30;99.90;;;;;;5133256;28;20038;-67
2024/01/27 04:04:04;;;;;;;24.48;7.45;;;3.30;99.90;;;;;;5133292;28;20050;-66
2024/01/27 04:06:35;;;;;;;16.58;5.68;;;3.20;99.90;;;;;;5134397;28;20028;-66
2024/01/27 04:09:00;;;;;;;18.00;6.43;;;3.20;99.90;;;;;;5134023;28;20030;-66
2024/01/27 04:11:26;;;;;;;17.60;6.00;;;3.20;99.90;;;;;;5133988;28;20024;-67
2024/01/27 04:13:52;;;;;;;13.57;6.20;;;3.20;99.90;;;;;;5133979;28;20032;-66
2024/01/27 04:16:18;;;;;;;21.88;7.38;;;3.10;99.90;;;;;;5134147;28;20026;-66
2024/01/27 04:18:43;;;;;;;18.70;6.45;;;3.10;99.90;;;;;;5133858;28;20023;-66
2024/01/27 04:21:09;;;;;;;19.67;6.13;;;3.10;99.90;;;;;;5132983;28;20023;-67
2024/01/27 04:23:34;;;;;;;17.55;6.38;;;3.10;99.90;;;;;;5132894;28;20468;-66
2024/01/27 04:26:00;;;;;;;14.70;6.22;;;3.10;99.90;;;;;;5133785;28;20075;-66
2024/01/27 04:28:26;;;;;;;13.20;6.53;;;3.10;99.90;;;;;;5133585;28;20051;-67
2024/01/27 04:30:52;;;;;;;20.75;6.80;;;3.10;99.90;;;;;;5133849;28;20024;-67
2024/01/27 04:33:18;;;;;;;14.35;6.13;;;3.00;99.90;;;;;;5133846;28;20028;-66
2024/01/27 04:35:43;;;;;;;14.88;6.95;;;3.00;99.90;;;;;;5133777;28;20032;-66
2024/01/27 04:38:09;;;;;;;12.70;6.13;;;3.10;99.90;;;;;;5133771;28;20024;-66
2024/01/27 04:40:35;;;;;;;14.15;6.20;;;3.00;99.90;;;;;;5133636;28;20486;-66
2024/01/27 04:43:01;;;;;;;19.25;7.20;;;3.10;99.90;;;;;;5133641;28;20024;-66
2024/01/27 04:45:27;;;;;;;16.20;6.45;;;3.10;99.90;;;;;;5132573;28;20028;-66
2024/01/27 04:47:53;;;;;;;17.15;6.72;;;3.10;99.90;;;;;;5132151;28;20027;-66
2024/01/27 04:50:20;;;;;;;12.23;5.97;;;3.10;99.90;;;;;;5133492;28;20393;-67
2024/01/27 04:52:46;;;;;;;14.38;5.88;;;3.10;99.90;;;;;;5132379;28;20024;-66
2024/01/27 04:55:12;;;;;;;18.50;6.07;;;3.00;99.90;;;;;;5133348;28;20050;-66
2024/01/27 04:57:38;;;;;;;14.13;6.07;;;3.10;99.90;;;;;;5132258;28;20104;-66
2024/01/27 05:00:07;;;;;;;11.73;5.82;;;3.10;99.90;;;;;;5132954;28;20028;-67
2024/01/27 05:02:33;;;;;;;17.45;6.18;;;3.00;99.90;;;;;;5133250;28;20024;-66
2024/01/27 05:04:59;;;;;;;15.43;6.65;;;3.00;99.90;;;;;;5133226;28;20023;-67
2024/01/27 05:07:24;;;;;;;17.20;7.10;;;3.00;99.90;;;;;;5133138;28;20050;-66
2024/01/27 05:09:50;;;;;;;20.55;5.90;;;3.00;99.90;;;;;;5133030;28;20077;-66
2024/01/27 05:12:16;;;;;;;13.60;6.53;;;3.00;99.90;;;;;;5133171;28;20020;-66
2024/01/27 05:14:45;;;;;;;16.95;6.78;;;3.00;99.90;;;;;;5133067;28;20016;-66
2024/01/27 05:17:11;;;;;;;13.48;5.82;;;3.00;99.90;;;;;;5132096;28;20044;-66
2024/01/27 05:19:36;;;;;;;19.25;6.22;;;3.00;99.90;;;;;;5114707;28;20076;-66
2024/01/27 05:22:02;;;;;;;13.80;6.15;;;3.00;99.90;;;;;;5132879;28;20031;-67
2024/01/27 05:24:27;;;;;;;15.80;5.90;;;3.00;99.90;;;;;;5132848;28;20034;-66
2024/01/27 05:26:53;;;;;;;12.65;6.15;;;3.00;99.90;;;;;;5132879;28;20519;-67
2024/01/27 05:29:19;;;;;;;14.00;6.80;;;3.00;99.90;;;;;;5132605;28;20062;-66
2024/01/27 05:31:44;;;;;;;19.25;7.20;;;3.00;99.90;;;;;;5132912;28;20382;-66
2024/01/27 05:34:11;;;;;;;18.23;6.53;;;3.00;99.90;;;;;;5132905;28;20024;-66
2024/01/27 05:36:36;;;;;;;13.07;6.45;;;3.00;99.90;;;;;;5131921;28;20023;-66
2024/01/27 05:39:04;;;;;;;14.13;7.10;;;3.00;99.90;;;;;;5132743;28;20031;-66
2024/01/27 05:41:30;;;;;;;12.88;6.18;;;3.00;99.90;;;;;;5132889;28;20126;-66
2024/01/27 05:43:59;;;;;;;10.75;5.90;;;3.00;99.90;;;;;;5132773;28;20057;-66
2024/01/27 05:46:25;;;;;;;13.70;6.20;;;3.00;99.90;;;;;;5132811;28;20035;-66
2024/01/27 05:48:53;;;;;;;12.10;6.22;;;2.90;99.90;;;;;;5132391;28;20024;-66
2024/01/27 05:51:25;;;;;;;17.23;6.55;;;2.90;99.90;;;;;;5132675;28;20026;-66
2024/01/27 05:53:50;;;;;;;16.80;6.85;;;2.90;99.90;;;;;;5131680;28;20055;-66
2024/01/27 05:56:19;;;;;;;22.83;6.63;;;2.90;99.90;;;;;;5131834;28;20032;-67
2024/01/27 05:58:45;;;;;;;17.15;6.55;;;2.90;99.90;;;;;;5132542;28;20028;-66
2024/01/27 06:01:11;;;;;;;11.75;5.70;;;2.90;99.90;;;;;;5132596;28;20043;-66
2024/01/27 06:03:36;;;;;;;15.48;6.72;;;2.80;99.90;;;;;;5131536;28;20030;-66
2024/01/27 06:06:02;;;;;;;18.27;7.20;;;2.70;99.90;;;;;;5132598;28;20462;-67
2024/01/27 06:08:29;;;;;;;11.63;5.93;;;2.70;99.90;;;;;;5132510;28;20105;-66
2024/01/27 06:10:54;;;;;;;12.98;6.43;;;2.70;99.90;;;;;;5133617;28;20027;-67
2024/01/27 06:13:20;;;;;;;15.07;5.55;;;2.70;99.90;;;;;;5136590;28;20084;-66
2024/01/27 06:15:45;;;;;;;13.27;5.30;;;2.60;99.90;;;;;;5136459;28;20046;-66
2024/01/27 06:18:11;;;;;;;16.63;5.72;;;2.60;99.90;;;;;;5136200;28;20031;-67
2024/01/27 06:20:36;;;;;;;15.80;6.75;;;2.60;99.90;;;;;;5136211;28;20031;-66
2024/01/27 06:23:02;;;;;;;17.58;6.35;;;2.60;99.90;;;;;;5136387;28;20028;-66
2024/01/27 06:25:28;;;;;;;21.85;7.25;;;2.60;99.90;;;;;;5136322;28;20028;-66
2024/01/27 06:27:53;;;;;;;24.02;6.90;;;2.60;99.90;;;;;;5118067;28;20058;-66
2024/01/27 06:30:19;;;;;;;19.25;6.28;;;2.60;99.90;;;;;;5136288;28;20024;-66
2024/01/27 06:32:47;;;;;;;17.35;7.15;;;2.60;99.90;;;;;;5118190;28;20035;-66
2024/01/27 06:35:12;;;;;;;12.70;6.28;;;2.60;99.90;;;;;;5135984;28;20050;-67
2024/01/27 06:37:38;;;;;;;14.25;7.35;;;2.70;99.90;;;;;;5135007;28;20027;-66
2024/01/27 06:40:04;;;;;;;19.15;7.28;;;2.70;99.90;;;;;;5135041;28;20024;-66
2024/01/27 06:42:30;;;;;;;19.23;7.03;;;2.70;99.90;;;;;;5135962;28;20034;-66
2024/01/27 06:44:56;;;;;;;16.67;7.22;;;2.70;99.90;;;;;;5135900;28;20024;-67
2024/01/27 06:47:21;;;;;;;20.17;7.68;;;2.70;99.90;;;;;;5135839;28;20028;-66
2024/01/27 06:49:47;;;;;;;14.20;7.25;;;2.70;99.90;;;;;;5135482;28;20027;-66
2024/01/27 06:52:13;;;;;;;16.15;6.40;;;2.60;99.90;;;;;;5135811;28;20023;-67
2024/01/27 06:54:43;;;;;;;14.05;6.60;;;2.60;99.90;;;;;;5135768;28;20032;-66
2024/01/27 06:57:20;;;;;;;19.58;6.80;;;2.70;99.90;;;;;;5134786;28;20024;-66
2024/01/27 06:59:55;;;;;;;15.82;6.10;;;2.60;99.90;;;;;;5130812;28;20081;-67
2024/01/27 07:02:30;;;;;;;13.98;6.43;;;2.60;99.90;;;;;;5135804;28;20057;-67
2024/01/27 07:04:56;;;;;;;19.83;6.40;;;2.60;99.90;;;;;;5135682;28;20020;-67
2024/01/27 07:07:25;;;;;;;16.13;6.03;;;2.50;99.90;;;;;;5135661;28;20035;-66
2024/01/27 07:09:51;;;;;;;12.90;6.28;;;2.50;99.90;;;;;;5135457;28;20622;-67
2024/01/27 07:12:17;;;;;;;15.80;7.00;;;2.50;99.90;;;;;;5134568;28;20027;-67
2024/01/27 07:14:43;;;;;;;16.52;6.32;;;2.50;99.90;;;;;;5135419;28;20020;-67
2024/01/27 07:17:08;;;;;;;17.33;7.35;;;2.50;99.90;;;;;;5135414;28;20035;-66
2024/01/27 07:19:34;;;;;;;23.67;6.43;;;2.60;99.90;;;;;;5135169;28;20031;-67
2024/01/27 07:22:00;;;;;;;15.93;7.53;;;2.60;99.90;;;;;;5134883;28;20046;-67
2024/01/27 07:24:26;;;;;;;15.57;6.97;;;2.50;99.90;;;;;;5135292;28;20087;-67
2024/01/27 07:26:52;;;;;;;16.42;6.80;;;2.50;99.90;;;;;;5135306;28;20059;-67
2024/01/27 07:29:17;;;;;;;20.95;7.50;;;2.60;99.90;;;;;;5134780;28;20056;-67
2024/01/27 07:31:43;;;;;;;18.65;7.30;;;2.50;99.90;;;;;;5135229;28;20028;-67
2024/01/27 07:34:08;;;;;;;17.30;7.50;;;2.60;99.90;;;;;;5135159;28;20027;-66
2024/01/27 07:36:34;;;;;;;26.00;7.65;;;2.60;99.90;;;;;;5135172;28;20024;-67
2024/01/27 07:39:00;;;;;;;17.52;7.53;;;2.60;99.90;;;;;;5135067;28;20024;-67
2024/01/27 07:41:25;;;;;;;24.10;7.32;;;2.60;99.90;;;;;;5134859;28;20035;-66
2024/01/27 07:43:51;;;;;;;12.57;6.55;;;2.60;99.90;;;;;;5134874;28;20031;-67
2024/01/27 07:46:19;;;;;;;18.02;7.80;;;2.60;99.90;;;;;;5134926;28;20027;-67
2024/01/27 07:48:45;;;;;;;23.88;7.85;;;2.60;99.90;;;;;;5134577;28;20089;-67
2024/01/27 07:51:11;;;;;;;22.33;7.93;;;2.60;99.90;;;;;;5134787;28;20225;-68
2024/01/27 07:53:36;;;;;;;16.45;7.72;;;2.60;99.90;;;;;;5134752;28;20028;-68
2024/01/27 07:56:02;;;;;;;14.25;8.20;;;2.60;99.90;;;;;;5133608;28;20035;-67
2024/01/27 07:58:28;;;;;;;15.05;7.45;;;2.60;99.90;;;;;;5134464;28;20088;-68
2024/01/27 08:00:53;;;;;;;19.65;7.05;;;2.60;99.90;;;;;;5133773;28;20035;-69
2024/01/27 08:03:19;;;;;;;17.27;8.32;;;2.70;99.90;;;;;;5134463;28;20024;-67
2024/01/27 08:05:45;;;;;;;17.73;7.88;;;2.70;99.90;;;;;;5134390;28;20225;-70
2024/01/27 08:08:10;;;;;;;14.25;7.20;;;2.70;99.90;;;;;;5134342;28;20023;-68
2024/01/27 08:10:36;;;;;;;18.60;8.15;;;2.60;99.90;;;;;;5133807;28;20129;-67
2024/01/27 08:13:02;;;;;;;28.40;8.68;;;2.60;99.90;;;;;;5133442;28;20020;-68
2024/01/27 08:15:28;;;;;;;17.58;7.60;;;2.70;99.90;;;;;;5134403;28;20075;-68
2024/01/27 08:17:53;;;;;;;20.88;8.93;;;2.70;99.90;;;;;;5133183;28;20062;-69
2024/01/27 08:20:19;;;;;;;15.32;7.97;;;2.70;99.90;;;;;;5134208;28;20052;-68
2024/01/27 08:22:45;;;;;;;17.63;7.85;;;2.70;99.90;;;;;;5134208;28;20052;-70
2024/01/27 08:25:11;;;;;;;23.17;8.98;;;2.70;99.90;;;;;;5134251;28;20020;-68
2024/01/27 08:27:37;;;;;;;17.83;8.68;;;2.70;99.90;;;;;;5132832;28;20087;-70
2024/01/27 08:30:03;;;;;;;19.63;7.82;;;2.70;99.90;;;;;;5134204;28;20043;-68
2024/01/27 08:32:28;;;;;;;17.33;8.00;;;2.70;99.90;;;;;;5134200;28;20030;-67
2024/01/27 08:34:54;;;;;;;17.58;8.63;;;2.70;99.90;;;;;;5132437;28;20027;-68
2024/01/27 08:37:20;;;;;;;13.93;7.63;;;2.70;99.90;;;;;;5134011;28;20063;-67
2024/01/27 08:39:46;;;;;;;17.60;7.78;;;2.80;99.90;;;;;;5133685;28;20024;-67
2024/01/27 08:42:12;;;;;;;19.77;9.27;;;2.80;99.90;;;;;;5132896;28;20085;-67
2024/01/27 08:44:38;;;;;;;17.77;7.95;;;2.80;99.90;;;;;;5133819;28;20083;-67
2024/01/27 08:47:05;;;;;;;18.73;7.97;;;2.90;99.90;;;;;;5133852;28;20049;-68
2024/01/27 08:49:30;;;;;;;21.67;8.35;;;2.90;99.90;;;;;;5132550;28;20122;-67
2024/01/27 08:51:56;;;;;;;18.25;7.95;;;3.00;99.90;;;;;;5132785;28;20020;-67
2024/01/27 08:54:22;;;;;;;17.73;8.07;;;3.00;99.90;;;;;;5133654;28;20119;-68
2024/01/27 08:56:48;;;;;;;12.52;7.88;;;3.00;99.90;;;;;;5133667;28;20032;-68
2024/01/27 08:59:14;;;;;;;24.75;9.10;;;3.10;99.90;;;;;;5132701;28;20051;-67
2024/01/27 09:01:39;;;;;;;17.33;9.07;;;3.10;99.90;;;;;;5133551;28;20032;-68
2024/01/27 09:04:05;;;;;;;16.45;7.28;;;3.20;99.90;;;;;;5133493;28;20043;-67
2024/01/27 09:06:31;;;;;;;19.77;8.32;;;3.20;99.90;;;;;;5133371;28;20024;-67
2024/01/27 09:08:56;;;;;;;20.90;8.30;;;3.20;99.90;;;;;;5133254;28;20032;-67
2024/01/27 09:11:23;;;;;;;17.10;7.78;;;3.20;99.90;;;;;;5133291;28;20038;-68
2024/01/27 09:13:51;;;;;;;16.45;8.00;;;3.20;99.90;;;;;;5132437;28;20027;-67
2024/01/27 09:16:17;;;;;;;21.48;6.75;;;3.30;99.90;;;;;;5133330;28;20019;-67
2024/01/27 09:18:43;;;;;;;21.23;8.05;;;3.30;99.90;;;;;;5133098;28;20043;-67
2024/01/27 09:21:09;;;;;;;15.98;7.93;;;3.30;99.90;;;;;;5132214;28;20091;-68
2024/01/27 09:23:35;;;;;;;18.33;7.50;;;3.40;99.90;;;;;;5115189;28;20027;-68
2024/01/27 09:26:00;;;;;;;17.90;7.88;;;3.40;99.90;;;;;;5132969;28;20386;-68
2024/01/27 09:28:26;;;;;;;19.85;8.55;;;3.50;99.90;;;;;;5132848;28;20072;-67
2024/01/27 09:30:52;;;;;;;18.60;8.63;;;3.60;99.90;;;;;;5133033;28;20054;-67
2024/01/27 09:33:19;;;;;;;27.02;9.20;;;3.60;99.90;;;;;;5133161;28;20027;-68
2024/01/27 09:35:46;;;;;;;19.77;8.13;;;3.70;99.90;;;;;;5133144;28;20016;-68
2024/01/27 09:38:14;;;;;;;14.68;7.93;;;3.70;99.90;;;;;;5133117;28;20031;-68
2024/01/27 09:40:40;;;;;;;18.33;7.40;;;3.80;99.90;;;;;;5132207;28;20019;-67
2024/01/27 09:43:10;;;;;;;24.30;9.68;;;3.90;99.90;;;;;;5133095;28;20030;-67
2024/01/27 09:45:36;;;;;;;24.80;8.05;;;3.90;99.90;;;;;;5134172;28;20023;-67
2024/01/27 09:48:04;;;;;;;23.13;9.98;;;4.00;99.90;;;;;;5135935;28;20038;-67
2024/01/27 09:50:30;;;;;;;17.83;7.97;;;4.00;99.90;;;;;;5136174;28;20041;-67
2024/01/27 09:52:55;;;;;;;23.15;9.45;;;4.10;99.90;;;;;;5136139;28;20032;-68
2024/01/27 09:55:21;;;;;;;20.13;8.68;;;4.20;99.90;;;;;;5137063;28;20041;-67
2024/01/27 09:57:48;;;;;;;23.55;8.95;;;4.20;99.90;;;;;;5118888;28;20031;-67
2024/01/27 10:00:16;;;;;;;18.08;9.45;;;4.30;99.90;;;;;;5136927;28;20087;-67
2024/01/27 10:02:44;;;;;;;22.27;9.40;;;4.40;99.90;;;;;;5136967;28;20497;-68
2024/01/27 10:05:11;;;;;;;19.27;8.68;;;4.50;99.90;;;;;;5135787;28;20039;-68
2024/01/27 10:07:37;;;;;;;22.95;9.48;;;4.60;99.90;;;;;;5136793;28;20028;-68
2024/01/27 10:10:04;;;;;;;22.00;8.23;;;4.70;99.90;;;;;;5136669;28;20053;-67
2024/01/27 10:12:31;;;;;;;24.85;8.52;;;4.80;99.90;;;;;;5136748;28;20031;-67
2024/01/27 10:14:57;;;;;;;17.25;7.85;;;4.90;99.90;;;;;;5136749;28;20088;-66
2024/01/27 10:17:25;;;;;;;29.60;11.43;;;5.00;99.90;;;;;;5136657;28;20032;-65
2024/01/27 10:20:04;;;;;;;41.30;14.45;;;5.10;99.90;;;;;;5136339;27;20033;-66
2024/01/27 10:22:37;;;;;;;25.98;8.77;;;5.20;99.90;;;;;;5136577;28;20019;-66
2024/01/27 10:25:04;;;;;;;29.08;11.95;;;5.30;99.90;;;;;;5136507;28;20023;-66
2024/01/27 10:27:29;;;;;;;38.30;14.25;;;5.40;99.90;;;;;;5136401;28;20062;-66
2024/01/27 10:29:55;;;;;;;20.80;7.60;;;5.50;99.90;;;;;;5135245;28;20051;-66
2024/01/27 10:32:24;;;;;;;26.25;7.53;;;5.60;99.90;;;;;;5136392;28;20023;-66
2024/01/27 10:35:03;;;;;;;14.20;7.07;;;5.70;99.90;;;;;;5136286;28;20102;-66
2024/01/27 10:37:29;;;;;;;17.50;6.97;;;5.80;99.90;;;;;;5136163;28;20041;-66
2024/01/27 10:40:07;;;;;;;14.07;7.05;;;5.90;99.90;;;;;;5136208;28;20080;-66
2024/01/27 10:42:34;;;;;;;16.75;6.45;;;6.00;99.90;;;;;;5136144;28;20097;-65
2024/01/27 10:45:00;;;;;;;14.32;6.47;;;6.10;99.90;;;;;;5135998;28;20051;-65
2024/01/27 10:47:30;;;;;;;14.35;5.65;;;6.20;99.90;;;;;;5135996;28;20038;-65
2024/01/27 10:49:57;;;;;;;19.13;6.68;;;6.20;99.90;;;;;;5135602;28;20045;-65
2024/01/27 10:52:31;;;;;;;14.63;7.25;;;6.20;99.90;;;;;;5136000;28;20020;-65
2024/01/27 10:55:03;;;;;;;25.67;7.47;;;6.30;99.90;;;;;;5135985;28;20179;-65
2024/01/27 10:57:30;;;;;;;12.75;6.22;;;6.40;99.90;;;;;;5134923;28;20024;-66
2024/01/27 10:59:56;;;;;;;22.52;6.97;;;6.50;99.90;;;;;;5135707;28;20031;-66
2024/01/27 11:02:23;;;;;;;15.02;5.43;;;6.60;99.90;;;;;;5135819;28;20019;-65
2024/01/27 11:04:51;;;;;;;17.05;6.25;;;6.60;99.90;;;;;;5134618;28;20024;-65
2024/01/27 11:07:19;;;;;;;20.92;8.13;;;6.70;99.90;;;;;;5135737;28;20020;-65
2024/01/27 11:09:46;;;;;;;20.38;8.45;;;6.80;99.90;;;;;;5135663;28;20027;-65
2024/01/27 11:12:12;;;;;;;16.48;6.70;;;6.90;99.90;;;;;;5135491;28;20024;-66
2024/01/27 11:14:37;;;;;;;27.48;10.55;;;6.90;99.90;;;;;;5135546;28;20043;-65
2024/01/27 11:17:03;;;;;;;13.35;5.40;;;7.00;99.90;;;;;;5135429;28;20024;-65
2024/01/27 11:19:29;;;;;;;15.20;5.72;;;7.00;99.90;;;;;;5135207;28;20026;-65
2024/01/27 11:22:04;;;;;;;11.30;5.10;;;7.10;99.90;;;;;;5135377;28;20035;-64
2024/01/27 11:24:29;;;;;;;16.63;5.97;;;7.10;99.90;;;;;;5135382;28;20027;-65
2024/01/27 11:27:04;;;;;;;16.30;5.43;;;7.10;99.90;;;;;;5135194;28;20043;-65
2024/01/27 11:29:32;;;;;;;19.17;7.47;;;7.20;99.90;;;;;;5134830;28;20069;-65
2024/01/27 11:32:03;;;;;;;11.20;5.28;;;7.20;99.90;;;;;;5134948;28;20019;-65
2024/01/27 11:34:44;;;;;;;16.15;6.00;;;7.20;99.90;;;;;;5134990;28;20035;-65
2024/01/27 11:37:14;;;;;;;15.98;5.75;;;7.30;99.90;;;;;;5135009;28;20016;-65
2024/01/27 11:39:40;;;;;;;12.75;5.07;;;7.30;99.90;;;;;;5135017;28;20492;-65
2024/01/27 11:42:13;;;;;;;14.45;4.82;;;7.40;99.90;;;;;;5134964;28;20043;-66
2024/01/27 11:44:41;;;;;;;16.42;4.80;;;7.50;99.90;;;;;;5134882;28;20138;-65
2024/01/27 11:47:15;;;;;;;19.60;7.45;;;7.60;99.90;;;;;;5134851;28;20020;-65
2024/01/27 11:50:09;;;;;;;33.25;12.60;;;7.70;99.90;;;;;;5133386;28;20035;-66
2024/01/27 11:52:34;;;;;;;29.13;11.77;;;7.70;99.90;;;;;;5131167;28;20031;-65
2024/01/27 11:55:01;;;;;;;28.83;12.00;;;7.80;99.90;;;;;;5134773;28;20031;-65
2024/01/27 11:57:27;;;;;;;27.85;14.43;;;7.80;99.90;;;;;;5134608;28;20023;-65
2024/01/27 11:59:53;;;;;;;19.52;8.02;;;7.90;99.90;;;;;;5134700;28;20024;-65
2024/01/27 12:02:19;;;;;;;14.27;5.07;;;7.90;99.90;;;;;;5134496;28;20045;-66
2024/01/27 12:04:46;;;;;;;18.23;5.57;;;8.00;99.90;;;;;;5134514;28;20016;-65
2024/01/27 12:07:12;;;;;;;13.40;4.88;;;8.00;99.90;;;;;;5134608;28;20083;-65
2024/01/27 12:09:38;;;;;;;14.13;4.90;;;8.10;99.90;;;;;;5133345;28;20033;-65
2024/01/27 12:12:05;;;;;;;11.70;4.93;;;8.20;99.90;;;;;;5134334;28;20072;-65
2024/01/27 12:14:49;;;;;;;12.65;4.90;;;8.20;99.90;;;;;;5134364;28;20031;-65
2024/01/27 12:17:16;;;;;;;14.07;4.68;;;8.30;99.90;;;;;;5134349;28;20027;-65
2024/01/27 12:19:50;;;;;;;13.32;4.70;;;8.40;99.90;;;;;;5133910;28;20038;-65
2024/01/27 12:22:33;;;;;;;8.52;4.53;;;8.40;99.90;;;;;;5134186;28;20033;-65
2024/01/27 12:25:11;;;;;;;18.73;4.32;;;8.50;99.90;;;;;;5134179;28;20023;-66
2024/01/27 12:27:37;;;;;;;10.98;4.90;;;8.60;99.90;;;;;;5133949;28;20041;-67
2024/01/27 12:30:04;;;;;;;11.13;3.63;;;8.60;99.90;;;;;;5134012;28;20083;-65
2024/01/27 12:32:31;;;;;;;12.48;3.58;;;8.80;99.90;;;;;;5133929;28;20024;-66
2024/01/27 12:35:00;;;;;;;7.55;2.78;;;8.80;99.90;;;;;;5133926;28;20023;-66
2024/01/27 12:37:25;;;;;;;11.63;4.07;;;8.90;99.90;;;;;;5133930;28;20016;-65
2024/01/27 12:39:51;;;;;;;10.85;3.60;;;9.00;99.90;;;;;;5133768;28;20170;-66
2024/01/27 12:42:17;;;;;;;12.38;3.10;;;9.00;99.90;;;;;;5133824;28;20061;-66
2024/01/27 12:44:43;;;;;;;11.65;2.90;;;9.00;99.90;;;;;;5133769;28;20051;-67